Flight Track Log - Related Links

Times and Time Zones

All times are in EST time to prevent confusion due to time zone crossing. See the KAL1337 flight status page for this flight to view local times or setup timezone preferences in your user account.

Time Position Orientation Groundspeed Altitude Reporting Facility
EST Latitude Longitude Course Direction KTS MPH feet Rate Location/Type
Mon 02:57:00 AM 37.4733 126.8173 166° South  Level Estimated
Mon 02:58:00 AM 37.3882 126.8440 166° South  Level Estimated
Mon 02:59:00 AM 37.3032 126.8706 166° South  Level Estimated
Mon 03:00:00 AM 37.2181 126.8971 166° South  Level Estimated
Mon 03:01:00 AM 37.1303 126.9244 166° South  Level Estimated
Mon 03:02:00 AM 37.0424 126.9517 166° South  Level Estimated
Mon 03:03:00 AM 36.9546 126.9789 166° South  Level Estimated
Mon 03:04:00 AM 36.8668 127.0061 166° South  Level Estimated
Mon 03:05:00 AM 36.7789 127.0331 166° South  Level Estimated
Mon 03:06:00 AM 36.6911 127.0602 166° South  Level Estimated
Mon 03:07:00 AM 36.6032 127.0871 166° South  Level Estimated
Mon 03:08:00 AM 36.5154 127.1140 166° South  Level Estimated
Mon 03:09:00 AM 36.4275 127.1409 166° South  Level Estimated
Mon 03:10:00 AM 36.3396 127.1676 166° South  Level Estimated
Mon 03:11:00 AM 36.2518 127.1943 166° South  Level Estimated
Mon 03:12:00 AM 36.1639 127.2210 166° South  Level Estimated
Mon 03:13:00 AM 36.0760 127.2476 166° South  Level Estimated
Mon 03:14:00 AM 35.9881 127.2741 166° South  Level Estimated
Mon 03:15:00 AM 35.9002 127.3006 166° South  Level Estimated
Mon 03:16:00 AM 35.8123 127.3270 166° South  Level Estimated
Mon 03:17:00 AM 35.7244 127.3534 166° South  Level Estimated
Mon 03:18:00 AM 35.6364 127.3797 166° South  Level Estimated
Mon 03:19:00 AM 35.5485 127.4059 166° South  Level Estimated
Mon 03:20:00 AM 35.4606 127.4321 166° South  Level Estimated
Mon 03:21:00 AM 35.3727 127.4583 166° South  Level Estimated
Mon 03:22:00 AM 35.2847 127.4843 166° South  Level Estimated
Mon 03:23:00 AM 35.1968 127.5103 166° South  Level Estimated
Mon 03:24:00 AM 35.1088 127.5363 166° South  Level Estimated
Mon 03:25:00 AM 35.0209 127.5622 166° South  Level Estimated
Mon 03:26:00 AM 34.9329 127.5880 166° South  Level Estimated
Mon 03:27:00 AM 34.8449 127.6138 166° South  Level Estimated
Mon 03:28:00 AM 34.8398 127.6153 166° South  Level Estimated
Mon 03:29:00 AM 34.8398 127.6153 180° South  Level Estimated
Mon 03:30:00 AM 34.8398 127.6153 180° South  Level Estimated
Mon 03:31:00 AM 34.8398 127.6153 180° South  Level Estimated
Mon 03:32:00 AM 34.8398 127.6153 180° South  Level Estimated
Mon 03:33:00 AM 34.8398 127.6153 180° South  Level Estimated
Mon 03:34:00 AM 34.8398 127.6153 180° South  Level Estimated

Login

Don't have an account? Register now (free) for customized features, flight alerts, and more!